createdAt,value
2018-09-24T00:02:24.764Z,1.90
2018-09-24T00:04:52.925Z,1.90
2018-09-24T00:07:21.077Z,1.80
2018-09-24T00:09:49.242Z,1.70
2018-09-24T00:12:17.402Z,1.50
2018-09-24T00:14:45.556Z,1.43
2018-09-24T00:17:13.690Z,1.87
2018-09-24T00:19:41.836Z,1.60
2018-09-24T00:22:09.980Z,1.87
2018-09-24T00:24:38.129Z,1.53
2018-09-24T00:27:06.270Z,2.00
2018-09-24T00:29:34.429Z,1.93
2018-09-24T00:32:02.597Z,1.97
2018-09-24T00:34:30.757Z,1.97
2018-09-24T00:36:59.114Z,2.10
2018-09-24T00:39:27.331Z,1.77
2018-09-24T00:41:55.498Z,1.83
2018-09-24T00:44:23.665Z,2.03
2018-09-24T00:46:51.825Z,2.20
2018-09-24T00:49:19.997Z,2.03
2018-09-24T00:51:48.137Z,2.30
2018-09-24T00:54:16.277Z,1.90
2018-09-24T00:56:44.432Z,2.27
2018-09-24T00:59:12.624Z,1.90
2018-09-24T01:01:40.796Z,1.83
2018-09-24T01:04:08.932Z,2.00
2018-09-24T01:06:37.090Z,1.83
2018-09-24T01:09:07.341Z,2.30
2018-09-24T01:11:35.497Z,2.13
2018-09-24T01:14:03.632Z,2.07
2018-09-24T01:16:31.771Z,2.20
2018-09-24T01:18:59.924Z,2.40
2018-09-24T01:21:28.057Z,2.80
2018-09-24T01:23:56.217Z,2.33
2018-09-24T01:26:24.369Z,2.70
2018-09-24T01:28:52.540Z,2.70
2018-09-24T01:31:20.696Z,2.70
2018-09-24T01:33:48.855Z,2.43
2018-09-24T01:36:17.033Z,2.43
2018-09-24T01:38:45.216Z,3.10
2018-09-24T01:41:13.363Z,2.20
2018-09-24T01:43:41.617Z,2.50
2018-09-24T01:46:09.765Z,1.97
2018-09-24T01:48:37.912Z,2.73
2018-09-24T01:51:06.138Z,2.03
2018-09-24T01:53:34.285Z,2.63
2018-09-24T01:56:02.437Z,2.50
2018-09-24T01:58:32.448Z,2.80
2018-09-24T02:01:00.594Z,2.37
2018-09-24T02:03:33.725Z,1.70
2018-09-24T02:06:02.220Z,2.10
2018-09-24T02:08:30.401Z,2.17
2018-09-24T02:10:58.549Z,1.73
2018-09-24T02:13:26.693Z,1.80
2018-09-24T02:15:54.860Z,2.00
2018-09-24T02:18:22.994Z,2.03
2018-09-24T02:20:51.145Z,1.93
2018-09-24T02:23:19.285Z,1.90
2018-09-24T02:25:47.434Z,2.30
2018-09-24T02:28:15.580Z,2.07
2018-09-24T02:30:43.735Z,2.67
2018-09-24T02:33:12.950Z,2.03
2018-09-24T02:35:47.981Z,2.07
2018-09-24T02:38:16.519Z,2.53
2018-09-24T02:40:44.689Z,1.90
2018-09-24T02:43:12.841Z,2.50
2018-09-24T02:45:41.023Z,2.30
2018-09-24T02:48:09.197Z,2.83
2018-09-24T02:50:38.865Z,2.30
2018-09-24T02:53:08.463Z,2.70
2018-09-24T02:55:36.629Z,2.60
2018-09-24T02:58:04.793Z,3.00
2018-09-24T03:00:32.954Z,3.17
2018-09-24T03:03:02.392Z,2.60
2018-09-24T03:05:30.548Z,2.87
2018-09-24T03:07:58.719Z,3.00
2018-09-24T03:10:26.877Z,3.63
2018-09-24T03:12:55.065Z,3.03
2018-09-24T03:15:23.226Z,3.43
2018-09-24T03:17:51.380Z,3.67
2018-09-24T03:20:19.533Z,3.87
2018-09-24T03:22:47.706Z,3.63
2018-09-24T03:25:18.288Z,3.37
2018-09-24T03:27:46.632Z,3.37
2018-09-24T03:30:14.889Z,4.10
2018-09-24T03:32:43.124Z,3.47
2018-09-24T03:35:11.280Z,3.90
2018-09-24T03:37:39.462Z,3.80
2018-09-24T03:40:07.605Z,3.90
2018-09-24T03:42:35.768Z,3.70
2018-09-24T03:45:03.934Z,3.53
2018-09-24T03:47:32.104Z,4.17
2018-09-24T03:50:00.233Z,4.60
2018-09-24T03:52:28.376Z,4.17
2018-09-24T03:54:56.521Z,4.57
2018-09-24T03:57:24.678Z,3.90
2018-09-24T03:59:52.821Z,4.40
2018-09-24T04:02:20.968Z,4.90
2018-09-24T04:04:54.493Z,4.27
2018-09-24T04:07:27.946Z,3.70
2018-09-24T04:10:01.582Z,5.00
2018-09-24T04:12:35.169Z,4.67
2018-09-24T04:15:08.803Z,4.50
2018-09-24T04:17:42.457Z,4.60
2018-09-24T04:20:16.004Z,4.87
2018-09-24T04:22:49.624Z,4.30
2018-09-24T04:25:23.128Z,4.73
2018-09-24T04:27:56.842Z,4.83
2018-09-24T04:30:30.489Z,4.77
2018-09-24T04:33:04.221Z,5.30
2018-09-24T04:35:37.780Z,4.97
2018-09-24T04:38:11.481Z,5.00
2018-09-24T04:40:45.197Z,5.63
2018-09-24T04:43:18.730Z,4.90
2018-09-24T04:45:52.380Z,5.10
2018-09-24T04:48:26.073Z,4.73
2018-09-24T04:50:59.565Z,5.10
2018-09-24T04:53:33.244Z,5.70
2018-09-24T04:56:06.802Z,5.33
2018-09-24T04:58:40.421Z,5.50
2018-09-24T05:01:14.471Z,5.57
2018-09-24T05:03:48.100Z,5.77
2018-09-24T05:06:21.749Z,5.30
2018-09-24T05:08:55.345Z,5.77
2018-09-24T05:11:28.712Z,6.50
2018-09-24T05:14:02.222Z,5.33
2018-09-24T05:16:35.863Z,5.73
2018-09-24T05:19:09.487Z,5.70
2018-09-24T05:21:43.110Z,6.03
2018-09-24T05:24:16.668Z,5.90
2018-09-24T05:26:50.289Z,5.00
2018-09-24T05:29:23.864Z,5.40
2018-09-24T05:31:57.549Z,5.73
2018-09-24T05:34:31.469Z,6.23
2018-09-24T05:37:04.841Z,6.80
2018-09-24T05:39:38.521Z,6.27
2018-09-24T05:42:12.209Z,6.53
2018-09-24T05:44:45.645Z,6.47
2018-09-24T05:47:19.273Z,5.73
2018-09-24T05:49:52.811Z,6.13
2018-09-24T05:52:26.436Z,5.83
2018-09-24T05:55:00.123Z,5.63
2018-09-24T05:57:33.722Z,6.67
2018-09-24T06:00:07.310Z,5.80
2018-09-24T06:02:40.922Z,6.00
2018-09-24T06:05:14.485Z,6.63
2018-09-24T06:07:48.088Z,5.77
2018-09-24T06:10:21.780Z,6.50
2018-09-24T06:12:55.466Z,6.03
2018-09-24T06:15:28.954Z,5.67
2018-09-24T06:18:02.485Z,6.00
2018-09-24T06:20:36.137Z,6.10
2018-09-24T06:23:09.824Z,6.60
2018-09-24T06:25:43.309Z,5.60
2018-09-24T06:28:16.841Z,6.33
2018-09-24T06:30:50.502Z,6.00
2018-09-24T06:33:24.023Z,6.10
2018-09-24T06:35:57.648Z,6.43
2018-09-24T06:38:31.317Z,5.43
2018-09-24T06:41:04.955Z,6.10
2018-09-24T06:43:38.381Z,5.90
2018-09-24T06:46:12.463Z,5.57
2018-09-24T06:48:46.097Z,6.33
2018-09-24T06:51:19.751Z,5.53
2018-09-24T06:53:53.433Z,5.50
2018-09-24T06:56:27.045Z,5.47
2018-09-24T06:59:00.701Z,5.50
2018-09-24T07:01:34.296Z,5.60
2018-09-24T07:04:08.000Z,5.50
2018-09-24T07:06:41.653Z,5.33
2018-09-24T07:09:15.124Z,5.83
2018-09-24T07:11:48.528Z,6.00
2018-09-24T07:14:22.222Z,5.30
2018-09-24T07:16:55.796Z,6.40
2018-09-24T07:19:29.418Z,5.67
2018-09-24T07:22:02.951Z,5.90
2018-09-24T07:24:36.624Z,6.00
2018-09-24T07:27:10.314Z,5.97
2018-09-24T07:29:43.961Z,5.03
2018-09-24T07:32:17.464Z,4.90
2018-09-24T07:34:51.109Z,5.20
2018-09-24T07:37:24.676Z,4.53
2018-09-24T07:39:58.341Z,4.80
2018-09-24T07:42:32.009Z,5.30
2018-09-24T07:45:05.540Z,4.90
2018-09-24T07:47:39.137Z,4.13
2018-09-24T07:50:12.770Z,4.07
2018-09-24T07:52:46.432Z,4.60
2018-09-24T07:55:20.137Z,4.03
2018-09-24T07:57:53.682Z,4.30
2018-09-24T08:00:27.326Z,4.30
2018-09-24T08:03:00.745Z,3.80
2018-09-24T08:05:34.376Z,3.60
2018-09-24T08:08:07.925Z,4.00
2018-09-24T08:10:41.616Z,3.30
2018-09-24T08:13:15.074Z,3.00
2018-09-24T08:15:48.726Z,3.70
2018-09-24T08:18:22.388Z,3.70
2018-09-24T08:20:56.026Z,4.00
2018-09-24T08:23:29.408Z,3.30
2018-09-24T08:26:03.081Z,3.00
2018-09-24T08:28:36.688Z,2.70
2018-09-24T08:31:10.321Z,2.13
2018-09-24T08:33:44.049Z,2.57
2018-09-24T08:36:17.572Z,2.57
2018-09-24T08:38:50.949Z,2.10
2018-09-24T08:41:24.457Z,2.33
2018-09-24T08:43:58.202Z,2.50
2018-09-24T08:46:31.701Z,2.10
2018-09-24T08:49:05.293Z,2.37
2018-09-24T08:51:38.741Z,2.30
2018-09-24T08:54:12.525Z,2.33
2018-09-24T08:56:46.245Z,2.37
2018-09-24T08:59:19.920Z,1.97
2018-09-24T09:01:53.566Z,2.13
2018-09-24T09:04:27.148Z,2.10
2018-09-24T09:07:00.713Z,1.80
2018-09-24T09:09:34.353Z,1.30
2018-09-24T09:12:07.971Z,1.80
2018-09-24T09:14:41.617Z,1.17
2018-09-24T09:17:15.324Z,1.50
2018-09-24T09:19:49.030Z,1.37
2018-09-24T09:22:22.671Z,1.50
2018-09-24T09:24:56.381Z,1.80
2018-09-24T09:27:29.860Z,1.80
2018-09-24T09:30:03.426Z,1.80
2018-09-24T09:32:37.132Z,2.03
2018-09-24T09:35:10.833Z,1.87
2018-09-24T09:37:44.483Z,1.80
2018-09-24T09:40:18.132Z,1.40
2018-09-24T09:42:51.777Z,1.63
2018-09-24T09:45:25.390Z,1.43
2018-09-24T09:47:58.796Z,1.27
2018-09-24T09:50:32.468Z,1.63
2018-09-24T09:53:06.104Z,1.00
2018-09-24T09:55:39.723Z,2.63
2018-09-24T09:58:13.425Z,1.80
2018-09-24T10:00:47.009Z,1.30
2018-09-24T10:03:20.661Z,1.47
2018-09-24T10:05:54.341Z,2.03
2018-09-24T10:08:27.793Z,1.90
2018-09-24T10:11:01.426Z,1.60
2018-09-24T10:13:35.032Z,1.33
2018-09-24T10:16:15.714Z,1.53
2018-09-24T10:18:49.383Z,1.47
2018-09-24T10:21:23.052Z,1.30
2018-09-24T10:23:56.777Z,1.30
2018-09-24T10:26:30.425Z,0.87
2018-09-24T10:29:04.094Z,1.67
2018-09-24T10:31:37.555Z,1.30
2018-09-24T10:34:11.264Z,1.27
2018-09-24T10:36:44.925Z,1.50
2018-09-24T10:39:18.604Z,1.10
2018-09-24T10:41:52.127Z,1.30
2018-09-24T10:44:25.729Z,1.00
2018-09-24T10:46:59.444Z,1.20
2018-09-24T10:49:33.096Z,1.00
2018-09-24T10:52:06.497Z,1.23
2018-09-24T10:54:40.233Z,1.30
2018-09-24T10:57:13.921Z,1.23
2018-09-24T10:59:47.477Z,1.57
2018-09-24T11:02:21.090Z,1.00
2018-09-24T11:04:54.787Z,0.97
2018-09-24T11:07:28.433Z,1.10
2018-09-24T11:10:02.080Z,1.10
2018-09-24T11:12:35.874Z,1.30
2018-09-24T11:15:09.411Z,1.30
2018-09-24T11:17:43.294Z,1.50
2018-09-24T11:20:16.712Z,1.13
2018-09-24T11:22:50.153Z,1.20
2018-09-24T11:25:23.854Z,1.90
2018-09-24T11:27:57.565Z,1.10
2018-09-24T11:30:31.064Z,1.00
2018-09-24T11:33:04.769Z,1.03
2018-09-24T11:35:38.380Z,1.20
2018-09-24T11:38:12.045Z,1.10
2018-09-24T11:40:45.520Z,1.00
2018-09-24T11:43:19.133Z,1.27
2018-09-24T11:45:52.661Z,1.10
2018-09-24T11:48:26.371Z,1.00
2018-09-24T11:50:59.788Z,1.60
2018-09-24T11:53:33.496Z,1.10
2018-09-24T11:56:07.207Z,1.00
2018-09-24T11:58:40.861Z,1.33
2018-09-24T12:01:14.559Z,1.20
2018-09-24T12:03:48.122Z,1.13
2018-09-24T12:06:21.716Z,1.20
2018-09-24T12:08:55.446Z,1.10
2018-09-24T12:11:29.075Z,1.10
2018-09-24T12:14:02.742Z,1.30
2018-09-24T12:16:36.204Z,1.43
2018-09-24T12:19:09.817Z,1.17
2018-09-24T12:21:43.538Z,1.40
2018-09-24T12:24:17.238Z,1.20
2018-09-24T12:26:50.865Z,1.33
2018-09-24T12:29:24.504Z,1.07
2018-09-24T12:31:58.056Z,1.63
2018-09-24T12:34:31.699Z,1.03
2018-09-24T12:37:05.536Z,1.33
2018-09-24T12:39:39.062Z,1.10
2018-09-24T12:42:12.422Z,1.13
2018-09-24T12:44:46.135Z,1.30
2018-09-24T12:47:19.825Z,0.90
2018-09-24T12:49:53.520Z,0.93
2018-09-24T12:52:27.045Z,1.20
2018-09-24T12:55:00.638Z,1.20
2018-09-24T12:57:34.314Z,0.93
2018-09-24T13:00:07.825Z,1.30
2018-09-24T13:02:41.496Z,0.80
2018-09-24T13:05:15.021Z,1.43
2018-09-24T13:07:48.673Z,0.77
2018-09-24T13:10:22.316Z,0.90
2018-09-24T13:12:56.030Z,1.20
2018-09-24T13:15:29.685Z,1.70
2018-09-24T13:18:03.085Z,1.37
2018-09-24T13:20:36.736Z,0.80
2018-09-24T13:23:10.365Z,1.10
2018-09-24T13:25:43.978Z,1.20
2018-09-24T13:28:17.654Z,1.50
2018-09-24T13:30:51.341Z,1.07
2018-09-24T13:33:25.090Z,1.13
2018-09-24T13:35:58.520Z,1.27
2018-09-24T13:38:32.169Z,0.97
2018-09-24T13:41:05.822Z,1.00
2018-09-24T13:43:39.316Z,0.97
2018-09-24T13:46:12.917Z,1.00
2018-09-24T13:48:46.524Z,1.30
2018-09-24T13:51:20.124Z,0.93
2018-09-24T13:53:53.621Z,1.30
2018-09-24T13:56:27.289Z,1.30
2018-09-24T13:59:00.805Z,0.90
2018-09-24T14:01:34.420Z,1.07
2018-09-24T14:04:08.021Z,1.10
2018-09-24T14:06:41.684Z,1.50
2018-09-24T14:09:15.260Z,1.10
2018-09-24T14:11:48.927Z,1.33
2018-09-24T14:14:22.453Z,1.20
2018-09-24T14:16:56.056Z,1.10
2018-09-24T14:19:29.737Z,1.50
2018-09-24T14:22:03.175Z,1.50
2018-09-24T14:24:36.906Z,1.73
2018-09-24T14:27:10.310Z,1.60
2018-09-24T14:29:43.909Z,1.23
2018-09-24T14:32:17.526Z,1.40
2018-09-24T14:34:52.321Z,1.17
2018-09-24T14:37:25.953Z,0.90
2018-09-24T14:39:59.907Z,1.10
2018-09-24T14:42:33.373Z,1.13
2018-09-24T14:45:06.998Z,1.20
2018-09-24T14:47:40.572Z,1.27
2018-09-24T14:50:14.145Z,0.93
2018-09-24T14:52:47.727Z,1.10
2018-09-24T14:55:21.238Z,1.03
2018-09-24T14:57:54.691Z,1.17
2018-09-24T15:00:28.361Z,0.80
2018-09-24T15:03:09.150Z,1.47
2018-09-24T15:05:42.883Z,1.47
2018-09-24T15:08:16.505Z,1.03
2018-09-24T15:10:50.168Z,0.90
2018-09-24T15:13:23.786Z,1.40
2018-09-24T15:15:57.182Z,1.53
2018-09-24T15:18:30.636Z,1.13
2018-09-24T15:21:04.393Z,0.93
2018-09-24T15:23:38.034Z,0.90
2018-09-24T15:26:21.273Z,0.80
2018-09-24T15:28:54.878Z,0.73
2018-09-24T15:31:29.013Z,0.90
2018-09-24T15:34:02.549Z,0.80
2018-09-24T15:36:36.369Z,1.23
2018-09-24T15:39:11.015Z,1.17
2018-09-24T15:41:44.535Z,1.13
2018-09-24T15:44:18.188Z,1.20
2018-09-24T15:46:51.805Z,2.03
2018-09-24T15:49:25.538Z,1.00
2018-09-24T15:51:59.173Z,1.10
2018-09-24T15:54:32.877Z,0.83
2018-09-24T15:57:06.506Z,0.93
2018-09-24T15:59:39.877Z,1.00
2018-09-24T16:02:13.453Z,1.27
2018-09-24T16:04:46.977Z,1.33
2018-09-24T16:07:20.410Z,1.40
2018-09-24T16:09:54.091Z,0.93
2018-09-24T16:12:27.540Z,1.33
2018-09-24T16:15:01.268Z,1.30
2018-09-24T16:17:34.708Z,2.00
2018-09-24T16:20:08.187Z,1.00
2018-09-24T16:22:41.871Z,1.10
2018-09-24T16:25:15.294Z,0.90
2018-09-24T16:27:48.897Z,1.00
2018-09-24T16:30:22.425Z,0.70
2018-09-24T16:32:56.062Z,1.40
2018-09-24T16:35:29.700Z,1.60
2018-09-24T16:38:03.329Z,2.27
2018-09-24T16:40:37.034Z,1.10
2018-09-24T16:43:10.437Z,0.90
2018-09-24T16:45:44.170Z,1.10
2018-09-24T16:48:17.795Z,1.10
2018-09-24T16:50:51.365Z,1.10
2018-09-24T16:53:24.804Z,1.03
2018-09-24T16:55:58.717Z,1.10
2018-09-24T16:58:32.171Z,1.00
2018-09-24T17:01:05.873Z,1.90
2018-09-24T17:03:39.412Z,1.60
2018-09-24T17:06:12.868Z,1.00
2018-09-24T17:08:46.568Z,1.10
2018-09-24T17:11:20.097Z,1.03
2018-09-24T17:13:53.796Z,1.50
2018-09-24T17:16:27.385Z,1.70
2018-09-24T17:19:00.870Z,1.53
2018-09-24T17:21:34.481Z,3.10
2018-09-24T17:24:08.146Z,1.40
2018-09-24T17:26:41.877Z,1.27
2018-09-24T17:29:15.449Z,0.90
2018-09-24T17:31:49.113Z,1.33
2018-09-24T17:34:22.729Z,2.30
2018-09-24T17:36:56.532Z,1.80
2018-09-24T17:39:30.186Z,1.60
2018-09-24T17:42:03.587Z,2.03
2018-09-24T17:44:37.304Z,1.53
2018-09-24T17:47:10.992Z,1.70
2018-09-24T17:49:44.485Z,1.60
2018-09-24T17:52:17.904Z,1.50
2018-09-24T17:54:51.310Z,1.93
2018-09-24T17:57:24.668Z,1.67
2018-09-24T17:59:58.044Z,2.30
2018-09-24T18:02:31.601Z,3.57
2018-09-24T18:05:05.157Z,2.23
2018-09-24T18:07:38.733Z,2.53
2018-09-24T18:10:12.413Z,2.57
2018-09-24T18:12:46.029Z,2.40
2018-09-24T18:15:19.516Z,3.47
2018-09-24T18:17:52.901Z,2.60
2018-09-24T18:20:26.485Z,2.80
2018-09-24T18:23:00.024Z,2.67
2018-09-24T18:25:33.710Z,2.90
2018-09-24T18:28:07.383Z,2.30
2018-09-24T18:30:41.017Z,2.40
2018-09-24T18:33:14.602Z,2.53
2018-09-24T18:35:47.940Z,2.83
2018-09-24T18:38:21.569Z,2.70
2018-09-24T18:40:55.174Z,1.87
2018-09-24T18:43:28.609Z,1.80
2018-09-24T18:46:02.213Z,1.83
2018-09-24T18:48:35.963Z,2.20
2018-09-24T18:51:09.533Z,2.50
2018-09-24T18:53:42.905Z,2.50
2018-09-24T18:56:16.662Z,3.70
2018-09-24T18:58:50.348Z,3.00
2018-09-24T19:01:24.110Z,3.37
2018-09-24T19:03:57.620Z,2.33
2018-09-24T19:06:31.195Z,2.10
2018-09-24T19:09:04.916Z,1.93
2018-09-24T19:11:38.482Z,1.83
2018-09-24T19:14:12.171Z,1.80
2018-09-24T19:16:45.780Z,1.90
2018-09-24T19:19:19.526Z,2.43
2018-09-24T19:21:53.133Z,1.90
2018-09-24T19:24:26.513Z,1.60
2018-09-24T19:27:00.174Z,1.80
2018-09-24T19:29:33.791Z,1.83
2018-09-24T19:32:07.373Z,2.00
2018-09-24T19:34:40.996Z,1.90
2018-09-24T19:37:14.573Z,1.77
2018-09-24T19:39:48.213Z,2.30
2018-09-24T19:42:21.881Z,2.13
2018-09-24T19:44:55.381Z,1.90
2018-09-24T19:47:28.872Z,2.00
2018-09-24T19:50:02.517Z,2.80
2018-09-24T19:52:36.177Z,1.80
2018-09-24T19:55:09.802Z,2.20
2018-09-24T19:57:43.321Z,2.47
2018-09-24T20:00:17.018Z,2.23
2018-09-24T20:02:50.417Z,1.80
2018-09-24T20:05:24.016Z,1.97
2018-09-24T20:07:58.268Z,2.63
2018-09-24T20:10:32.076Z,2.10
2018-09-24T20:13:05.593Z,1.80
2018-09-24T20:15:39.565Z,2.40
2018-09-24T20:18:13.224Z,2.00
2018-09-24T20:20:46.957Z,2.00
2018-09-24T20:23:20.914Z,1.77
2018-09-24T20:25:54.537Z,2.73
2018-09-24T20:28:28.969Z,1.80
2018-09-24T20:31:02.633Z,2.87
2018-09-24T20:33:36.087Z,2.20
2018-09-24T20:36:09.797Z,1.67
2018-09-24T20:38:43.414Z,2.20
2018-09-24T20:41:21.307Z,2.57
2018-09-24T20:43:54.897Z,2.13
2018-09-24T20:46:28.649Z,2.00
2018-09-24T20:49:02.349Z,2.20
2018-09-24T20:51:36.045Z,1.80
2018-09-24T20:54:10.055Z,1.60
2018-09-24T20:56:43.612Z,1.73
2018-09-24T20:59:17.201Z,1.80
2018-09-24T21:01:50.685Z,2.40
2018-09-24T21:04:24.400Z,1.90
2018-09-24T21:06:57.884Z,2.10
2018-09-24T21:09:31.492Z,2.00
2018-09-24T21:12:05.097Z,2.37
2018-09-24T21:14:38.449Z,2.90
2018-09-24T21:17:12.107Z,1.90
2018-09-24T21:19:45.678Z,2.03
2018-09-24T21:22:19.330Z,2.50
2018-09-24T21:24:52.989Z,2.10
2018-09-24T21:27:26.661Z,1.87
2018-09-24T21:30:00.022Z,2.30
2018-09-24T21:32:33.697Z,1.90
2018-09-24T21:35:07.333Z,2.27
2018-09-24T21:37:40.990Z,2.37
2018-09-24T21:40:14.565Z,2.10
2018-09-24T21:42:48.234Z,2.37
2018-09-24T21:45:21.926Z,2.03
2018-09-24T21:47:55.597Z,2.10
2018-09-24T21:50:29.272Z,2.40
2018-09-24T21:53:02.875Z,1.87
2018-09-24T21:55:36.422Z,2.63
2018-09-24T21:58:09.809Z,3.00
2018-09-24T22:00:43.296Z,2.50
2018-09-24T22:03:16.916Z,3.17
2018-09-24T22:05:50.368Z,3.03
2018-09-24T22:08:23.981Z,2.70
2018-09-24T22:10:57.669Z,3.13
2018-09-24T22:13:31.096Z,2.70
2018-09-24T22:16:04.592Z,2.47
2018-09-24T22:18:38.240Z,2.40
2018-09-24T22:21:11.917Z,2.40
2018-09-24T22:23:45.498Z,2.47
2018-09-24T22:26:19.062Z,2.50
2018-09-24T22:28:52.756Z,2.73
2018-09-24T22:31:26.464Z,2.73
2018-09-24T22:34:00.013Z,2.97
2018-09-24T22:36:33.392Z,2.90
2018-09-24T22:39:06.996Z,2.90
2018-09-24T22:41:40.716Z,2.60
2018-09-24T22:44:14.365Z,2.50
2018-09-24T22:46:48.106Z,2.67
2018-09-24T22:49:21.793Z,2.80
2018-09-24T22:51:55.488Z,2.97
2018-09-24T22:54:29.177Z,2.77
2018-09-24T22:57:02.810Z,2.77
2018-09-24T22:59:36.353Z,3.20
2018-09-24T23:02:09.971Z,2.37
2018-09-24T23:04:43.308Z,2.37
2018-09-24T23:07:16.961Z,3.40
2018-09-24T23:09:50.677Z,3.20
2018-09-24T23:12:24.144Z,2.83
2018-09-24T23:14:57.813Z,2.30
2018-09-24T23:17:31.169Z,2.97
2018-09-24T23:20:05.015Z,2.20
2018-09-24T23:22:38.421Z,2.30
2018-09-24T23:25:12.059Z,2.53
2018-09-24T23:27:45.705Z,2.43
2018-09-24T23:30:19.309Z,2.80
2018-09-24T23:32:52.953Z,2.17
2018-09-24T23:35:26.590Z,2.27
2018-09-24T23:38:00.262Z,2.50
2018-09-24T23:40:34.051Z,2.73
2018-09-24T23:43:07.517Z,2.50
2018-09-24T23:45:41.197Z,2.40
2018-09-24T23:48:14.898Z,2.40
2018-09-24T23:50:48.493Z,2.40
2018-09-24T23:53:22.131Z,2.27
2018-09-24T23:55:55.727Z,2.60
2018-09-24T23:58:29.391Z,2.90
